ACI151 YBBN-NWWW
Flight info
| Callsign | ACI151 |
|---|---|
| Flight time | N/A |
| Altitude | 39000 |
| Route | GUMKI B578 TEBUR DCT NISAS NISAS2A |
| Aircraft | A20N/M-SDE2E3FGHIRWXY/LB1 |
Departure
| Time | 2026-05-06 06:52 |
|---|---|
| Airport | Brisbane International Airport (YBBN) |
Arrival
| Time | N/A |
|---|---|
| Airport | La Tontouta International Airport (NWWW) |
| Time | Latitude | Longitude | Altitude | Speed | Heading |
|---|---|---|---|---|---|
| 2026-05-06 06:20 | -27.40103 | 153.11293 | 20 ft | 0 kts | 307° |
| 2026-05-06 06:28 | -27.40103 | 153.11294 | 0 ft | 0 kts | 307° |
| 2026-05-06 06:41 | -27.40117 | 153.11310 | 19 ft | 4 kts | 316° |
| 2026-05-06 06:42 | -27.40132 | 153.11330 | 17 ft | 4 kts | 313° |
| 2026-05-06 06:42 | -27.40152 | 153.11348 | 21 ft | 4 kts | 343° |
| 2026-05-06 06:42 | -27.40178 | 153.11349 | 17 ft | 4 kts | 22° |
| 2026-05-06 06:42 | -27.40201 | 153.11333 | 17 ft | 4 kts | 42° |
| 2026-05-06 06:43 | -27.40221 | 153.11313 | 13 ft | 4 kts | 32° |
| 2026-05-06 06:43 | -27.40242 | 153.11299 | 18 ft | 4 kts | 30° |
| 2026-05-06 06:43 | -27.40263 | 153.11285 | 20 ft | 1 kts | 31° |
| 2026-05-06 06:46 | -27.40244 | 153.11298 | 19 ft | 10 kts | 31° |
| 2026-05-06 06:47 | -27.40182 | 153.11375 | 17 ft | 16 kts | 85° |
| 2026-05-06 06:47 | -27.40209 | 153.11491 | 18 ft | 10 kts | 60° |
| 2026-05-06 06:47 | -27.40142 | 153.11536 | 19 ft | 15 kts | 28° |
| 2026-05-06 06:47 | -27.40025 | 153.11603 | 17 ft | 21 kts | 27° |
| 2026-05-06 06:48 | -27.39883 | 153.11685 | 17 ft | 24 kts | 27° |
| 2026-05-06 06:48 | -27.39726 | 153.11776 | 18 ft | 26 kts | 28° |
| 2026-05-06 06:48 | -27.39556 | 153.11872 | 18 ft | 28 kts | 25° |
| 2026-05-06 06:48 | -27.39376 | 153.11976 | 18 ft | 30 kts | 28° |
| 2026-05-06 06:49 | -27.39185 | 153.12084 | 18 ft | 31 kts | 26° |
| 2026-05-06 06:49 | -27.38998 | 153.12190 | 18 ft | 28 kts | 27° |
| 2026-05-06 06:49 | -27.38822 | 153.12291 | 20 ft | 29 kts | 27° |
| 2026-05-06 06:49 | -27.38668 | 153.12378 | 18 ft | 25 kts | 28° |
| 2026-05-06 06:50 | -27.38508 | 153.12471 | 18 ft | 27 kts | 26° |
| 2026-05-06 06:50 | -27.38335 | 153.12571 | 18 ft | 29 kts | 27° |
| 2026-05-06 06:50 | -27.38151 | 153.12677 | 18 ft | 31 kts | 26° |
| 2026-05-06 06:50 | -27.37996 | 153.12773 | 19 ft | 19 kts | 54° |
| 2026-05-06 06:51 | -27.38030 | 153.12905 | 18 ft | 19 kts | 117° |
| 2026-05-06 06:51 | -27.38087 | 153.13029 | 21 ft | 10 kts | 116° |
| 2026-05-06 06:51 | -27.38134 | 153.13050 | 21 ft | 9 kts | 207° |
| 2026-05-06 06:51 | -27.38286 | 153.12964 | 24 ft | 55 kts | 206° |
| 2026-05-06 06:52 | -27.38831 | 153.12651 | 21 ft | 117 kts | 206° |
| 2026-05-06 06:52 | -27.39698 | 153.12145 | 83 ft | 156 kts | 207° |
| 2026-05-06 06:52 | -27.40321 | 153.11754 | 452 ft | 155 kts | 205° |
| 2026-05-06 06:52 | -27.41274 | 153.11200 | 1047 ft | 154 kts | 204° |
| 2026-05-06 06:53 | -27.42532 | 153.10452 | 1877 ft | 150 kts | 205° |
| 2026-05-06 06:53 | -27.43153 | 153.10087 | 2173 ft | 157 kts | 199° |
| 2026-05-06 06:53 | -27.44283 | 153.09910 | 2522 ft | 173 kts | 173° |
| 2026-05-06 06:53 | -27.45475 | 153.10354 | 2925 ft | 193 kts | 144° |
| 2026-05-06 06:54 | -27.46522 | 153.11439 | 3440 ft | 216 kts | 135° |
| 2026-05-06 06:54 | -27.47622 | 153.12677 | 4269 ft | 227 kts | 135° |
| 2026-05-06 06:54 | -27.48769 | 153.13933 | 5256 ft | 235 kts | 142° |
| 2026-05-06 06:54 | -27.50261 | 153.14702 | 6166 ft | 243 kts | 166° |
| 2026-05-06 06:55 | -27.51881 | 153.15474 | 6751 ft | 267 kts | 143° |
| 2026-05-06 06:55 | -27.53106 | 153.17134 | 7417 ft | 284 kts | 115° |
| 2026-05-06 06:55 | -27.53541 | 153.19318 | 8337 ft | 292 kts | 88° |
| 2026-05-06 06:55 | -27.53084 | 153.21546 | 9307 ft | 296 kts | 62° |
| 2026-05-06 06:56 | -27.51832 | 153.23346 | 10250 ft | 298 kts | 38° |
| 2026-05-06 06:56 | -27.50144 | 153.24818 | 10819 ft | 318 kts | 36° |
| 2026-05-06 06:56 | -27.48450 | 153.26568 | 11216 ft | 343 kts | 45° |
| 2026-05-06 06:56 | -27.46941 | 153.28716 | 11937 ft | 353 kts | 53° |
| 2026-05-06 06:57 | -27.45614 | 153.31069 | 12861 ft | 358 kts | 57° |
| 2026-05-06 06:57 | -27.44373 | 153.33523 | 13762 ft | 363 kts | 58° |
| 2026-05-06 06:57 | -27.43154 | 153.36041 | 14530 ft | 369 kts | 58° |
| 2026-05-06 06:57 | -27.41921 | 153.38608 | 15253 ft | 376 kts | 58° |
| 2026-05-06 06:58 | -27.40665 | 153.41209 | 15993 ft | 381 kts | 58° |
| 2026-05-06 06:58 | -27.39382 | 153.43852 | 16709 ft | 387 kts | 57° |
| 2026-05-06 06:58 | -27.38076 | 153.46529 | 17401 ft | 393 kts | 57° |
| 2026-05-06 06:58 | -27.36749 | 153.49242 | 18086 ft | 399 kts | 57° |
| 2026-05-06 06:59 | -27.35400 | 153.51996 | 18699 ft | 405 kts | 56° |
| 2026-05-06 06:59 | -27.34032 | 153.54785 | 19314 ft | 409 kts | 56° |
| 2026-05-06 06:59 | -27.32652 | 153.57599 | 19919 ft | 413 kts | 56° |
| 2026-05-06 06:59 | -27.31255 | 153.60442 | 20522 ft | 418 kts | 56° |
| 2026-05-06 07:00 | -27.29839 | 153.63321 | 21124 ft | 423 kts | 56° |
| 2026-05-06 07:00 | -27.28410 | 153.66225 | 21702 ft | 427 kts | 56° |
| 2026-05-06 07:00 | -27.26962 | 153.69165 | 22274 ft | 432 kts | 56° |
| 2026-05-06 07:00 | -27.25499 | 153.72135 | 22854 ft | 437 kts | 56° |
| 2026-05-06 07:01 | -27.24037 | 153.75099 | 23417 ft | 441 kts | 56° |
| 2026-05-06 07:01 | -27.22539 | 153.78134 | 23918 ft | 446 kts | 56° |
| 2026-05-06 07:01 | -27.21029 | 153.81191 | 24404 ft | 450 kts | 56° |
| 2026-05-06 07:01 | -27.19506 | 153.84274 | 24886 ft | 453 kts | 55° |
| 2026-05-06 07:02 | -27.18066 | 153.87465 | 25345 ft | 461 kts | 61° |
| 2026-05-06 07:02 | -27.16768 | 153.90775 | 25813 ft | 466 kts | 61° |
| 2026-05-06 07:02 | -27.15457 | 153.94118 | 26270 ft | 470 kts | 61° |
| 2026-05-06 07:02 | -27.14131 | 153.97488 | 26722 ft | 474 kts | 60° |
| 2026-05-06 07:03 | -27.12792 | 154.00883 | 27147 ft | 478 kts | 60° |
| 2026-05-06 07:03 | -27.11438 | 154.04306 | 27569 ft | 482 kts | 60° |
| 2026-05-06 07:03 | -27.10071 | 154.07761 | 27987 ft | 485 kts | 60° |
| 2026-05-06 07:03 | -27.08693 | 154.11238 | 28374 ft | 489 kts | 60° |
| 2026-05-06 07:04 | -27.07303 | 154.14745 | 28764 ft | 493 kts | 60° |
| 2026-05-06 07:04 | -27.05921 | 154.18227 | 29142 ft | 496 kts | 60° |
| 2026-05-06 07:04 | -27.04508 | 154.21785 | 29496 ft | 500 kts | 60° |
| 2026-05-06 07:04 | -27.03086 | 154.25362 | 29865 ft | 503 kts | 60° |
| 2026-05-06 07:05 | -27.01654 | 154.28960 | 30216 ft | 507 kts | 60° |
| 2026-05-06 07:05 | -27.00208 | 154.32589 | 30491 ft | 511 kts | 60° |
| 2026-05-06 07:05 | -26.98751 | 154.36242 | 30754 ft | 515 kts | 60° |
| 2026-05-06 07:05 | -26.97281 | 154.39925 | 31032 ft | 519 kts | 60° |
| 2026-05-06 07:06 | -26.95802 | 154.43630 | 31359 ft | 522 kts | 60° |
| 2026-05-06 07:06 | -26.94314 | 154.47356 | 31707 ft | 524 kts | 60° |
| 2026-05-06 07:06 | -26.92819 | 154.51094 | 32066 ft | 525 kts | 60° |
| 2026-05-06 07:06 | -26.91321 | 154.54836 | 32413 ft | 527 kts | 60° |
| 2026-05-06 07:07 | -26.89817 | 154.58589 | 32756 ft | 528 kts | 60° |
| 2026-05-06 07:07 | -26.88327 | 154.62302 | 33100 ft | 530 kts | 60° |
| 2026-05-06 07:07 | -26.86812 | 154.66075 | 33444 ft | 531 kts | 59° |
| 2026-05-06 07:07 | -26.85839 | 154.68494 | 33658 ft | 532 kts | 59° |